createdAt,value
2022-08-01T00:00:14.479Z,100119.31
2022-08-01T00:03:03.312Z,100122.91
2022-08-01T00:05:32.726Z,100119.22
2022-08-01T00:08:01.408Z,100117.06
2022-08-01T00:10:30.284Z,100115.22
2022-08-01T00:13:00.434Z,100113.28
2022-08-01T00:15:29.035Z,100112.41
2022-08-01T00:17:57.610Z,100113.00
2022-08-01T00:20:26.785Z,100100.31
2022-08-01T00:22:55.386Z,100097.84
2022-08-01T00:25:34.453Z,100095.84
2022-08-01T00:28:05.558Z,100090.41
2022-08-01T00:30:34.153Z,100086.72
2022-08-01T00:33:02.934Z,100091.13
2022-08-01T00:35:31.776Z,100090.03
2022-08-01T00:38:00.432Z,100088.59
2022-08-01T00:40:29.052Z,100092.94
2022-08-01T00:42:58.048Z,100090.84
2022-08-01T00:45:28.273Z,100094.50
2022-08-01T00:47:56.946Z,100085.97
2022-08-01T00:50:26.224Z,100086.25
2022-08-01T00:52:57.424Z,100086.13
2022-08-01T00:55:27.008Z,100085.28
2022-08-01T00:58:03.681Z,100079.66
2022-08-01T01:00:52.489Z,100083.00
2022-08-01T01:06:29.099Z,100096.88
2022-08-01T01:09:19.185Z,100101.56
2022-08-01T01:12:14.231Z,100093.88
2022-08-01T01:14:53.263Z,100095.94
2022-08-01T01:17:50.585Z,100104.13
2022-08-01T01:20:26.072Z,100104.00
2022-08-01T01:23:12.457Z,100098.81
2022-08-01T01:26:11.116Z,100091.47
2022-08-01T01:29:10.856Z,100099.03
2022-08-01T01:31:48.131Z,100096.84
2022-08-01T01:34:23.398Z,100091.03
2022-08-01T01:36:56.917Z,100102.78
2022-08-01T01:39:30.433Z,100096.78
2022-08-01T01:42:01.544Z,100100.75
2022-08-01T01:44:33.919Z,100099.50
2022-08-01T01:47:03.788Z,100104.56
2022-08-01T01:49:35.111Z,100098.81
2022-08-01T01:52:06.453Z,100097.88
2022-08-01T01:54:39.534Z,100102.59
2022-08-01T01:57:11.420Z,100099.09
2022-08-01T01:59:44.165Z,100103.25
2022-08-01T02:02:17.188Z,100100.22
2022-08-01T02:04:49.581Z,100100.03
2022-08-01T02:07:26.113Z,100098.53
2022-08-01T02:09:56.702Z,100102.69
2022-08-01T02:12:26.988Z,100099.22
2022-08-01T02:14:59.519Z,100088.16
2022-08-01T02:17:30.456Z,100084.31
2022-08-01T02:19:59.806Z,100088.22
2022-08-01T02:22:34.394Z,100086.53
2022-08-01T02:25:12.145Z,100092.66
2022-08-01T02:27:47.918Z,100095.47
2022-08-01T02:30:18.482Z,100089.63
2022-08-01T02:32:53.226Z,100092.41
2022-08-01T02:35:27.446Z,100098.53
2022-08-01T02:38:00.858Z,100096.81
2022-08-01T02:40:34.770Z,100094.41
2022-08-01T02:43:07.396Z,100095.66
2022-08-01T02:45:44.524Z,100095.88
2022-08-01T02:48:17.343Z,100098.94
2022-08-01T02:50:51.594Z,100097.66
2022-08-01T02:53:39.120Z,100092.28
2022-08-01T02:56:15.600Z,100101.03
2022-08-01T02:58:46.705Z,100098.13
2022-08-01T03:01:20.734Z,100099.09
2022-08-01T03:03:50.294Z,100107.19
2022-08-01T03:06:20.273Z,100110.78
2022-08-01T03:08:50.815Z,100098.97
2022-08-01T03:11:21.544Z,100104.09
2022-08-01T03:13:54.014Z,100113.97
2022-08-01T03:16:28.495Z,100117.78
2022-08-01T03:18:59.085Z,100107.31
2022-08-01T03:21:29.933Z,100109.69
2022-08-01T03:24:02.279Z,100114.63
2022-08-01T03:26:35.701Z,100111.78
2022-08-01T03:29:08.441Z,100109.63
2022-08-01T03:31:43.777Z,100110.66
2022-08-01T03:34:13.049Z,100119.41
2022-08-01T03:36:50.288Z,100124.19
2022-08-01T03:39:24.604Z,100123.03
2022-08-01T03:42:00.091Z,100128.22
2022-08-01T03:44:35.955Z,100124.72
2022-08-01T03:47:10.619Z,100133.94
2022-08-01T03:49:46.231Z,100126.06
2022-08-01T03:52:16.360Z,100134.53
2022-08-01T03:54:51.362Z,100141.19
2022-08-01T03:57:36.050Z,100144.97
2022-08-01T04:00:09.982Z,100144.78
2022-08-01T04:02:43.995Z,100145.38
2022-08-01T04:05:13.260Z,100147.91
2022-08-01T04:07:44.083Z,100148.41
2022-08-01T04:10:13.710Z,100147.19
2022-08-01T04:12:42.318Z,100148.97
2022-08-01T04:15:11.146Z,100151.88
2022-08-01T04:17:40.414Z,100149.97
2022-08-01T04:20:13.089Z,100151.91
2022-08-01T04:22:42.478Z,100146.16
2022-08-01T04:25:21.636Z,100144.28
2022-08-01T04:27:54.288Z,100150.44
2022-08-01T04:30:29.320Z,100149.28
2022-08-01T04:33:02.367Z,100154.75
2022-08-01T04:36:02.490Z,100161.13
2022-08-01T04:38:29.030Z,100151.78
2022-08-01T04:40:59.368Z,100160.84
2022-08-01T04:43:38.524Z,100160.94
2022-08-01T04:46:09.001Z,100154.75
2022-08-01T04:48:40.887Z,100166.41
2022-08-01T04:51:17.247Z,100163.63
2022-08-01T04:53:47.815Z,100163.59
2022-08-01T04:56:16.941Z,100168.81
2022-08-01T04:58:46.238Z,100169.91
2022-08-01T05:01:15.768Z,100171.88
2022-08-01T05:03:45.120Z,100173.56
2022-08-01T05:06:15.996Z,100173.78
2022-08-01T05:08:44.608Z,100180.38
2022-08-01T05:11:13.488Z,100178.78
2022-08-01T05:13:42.058Z,100182.78
2022-08-01T05:16:10.876Z,100187.78
2022-08-01T05:18:39.673Z,100171.72
2022-08-01T05:21:09.102Z,100185.22
2022-08-01T05:23:43.262Z,100176.72
2022-08-01T05:26:15.028Z,100184.16
2022-08-01T05:28:44.503Z,100187.25
2022-08-01T05:31:13.469Z,100190.13
2022-08-01T05:33:42.092Z,100199.22
2022-08-01T05:36:10.781Z,100198.34
2022-08-01T05:38:40.905Z,100199.72
2022-08-01T05:41:09.568Z,100189.91
2022-08-01T05:43:38.215Z,100192.81
2022-08-01T05:46:07.050Z,100193.16
2022-08-01T05:48:35.661Z,100186.38
2022-08-01T05:51:04.717Z,100198.47
2022-08-01T05:53:35.355Z,100193.75
2022-08-01T05:56:05.969Z,100199.03
2022-08-01T05:58:34.853Z,100206.59
2022-08-01T06:01:03.430Z,100195.72
2022-08-01T06:03:34.258Z,100198.28
2022-08-01T06:06:03.132Z,100197.44
2022-08-01T06:08:32.278Z,100206.72
2022-08-01T06:11:01.253Z,100203.56
2022-08-01T06:13:31.560Z,100201.97
2022-08-01T06:16:00.212Z,100200.84
2022-08-01T06:18:28.807Z,100206.53
2022-08-01T06:20:57.619Z,100203.66
2022-08-01T06:23:32.272Z,100204.22
2022-08-01T06:26:01.822Z,100206.53
2022-08-01T06:28:31.981Z,100217.19
2022-08-01T06:31:01.204Z,100211.69
2022-08-01T06:33:30.461Z,100214.72
2022-08-01T06:35:59.096Z,100218.19
2022-08-01T06:38:27.696Z,100218.25
2022-08-01T06:40:56.588Z,100220.00
2022-08-01T06:43:25.368Z,100215.88
2022-08-01T06:45:55.480Z,100212.25
2022-08-01T06:48:24.611Z,100223.16
2022-08-01T06:51:08.774Z,100215.81
2022-08-01T06:53:39.692Z,100219.13
2022-08-01T06:56:09.706Z,100212.66
2022-08-01T06:58:39.071Z,100210.56
2022-08-01T07:01:09.514Z,100216.53
2022-08-01T07:03:53.429Z,100220.53
2022-08-01T07:06:26.165Z,100217.59
2022-08-01T07:08:55.581Z,100215.91
2022-08-01T07:11:25.991Z,100218.09
2022-08-01T07:13:54.817Z,100217.53
2022-08-01T07:16:24.782Z,100210.50
2022-08-01T07:18:53.367Z,100210.94
2022-08-01T07:21:40.055Z,100214.75
2022-08-01T07:24:13.957Z,100219.63
2022-08-01T07:26:52.899Z,100209.13
2022-08-01T07:29:25.182Z,100207.22
2022-08-01T07:31:57.530Z,100202.03
2022-08-01T07:34:27.553Z,100206.88
2022-08-01T07:36:56.396Z,100203.69
2022-08-01T07:39:25.098Z,100205.75
2022-08-01T07:42:06.118Z,100196.91
2022-08-01T07:44:37.426Z,100210.13
2022-08-01T07:47:08.429Z,100207.66
2022-08-01T07:49:40.376Z,100208.66
2022-08-01T07:52:10.565Z,100205.78
2022-08-01T07:54:39.197Z,100207.69
2022-08-01T07:57:08.305Z,100198.72
2022-08-01T07:59:37.497Z,100205.09
2022-08-01T08:02:08.068Z,100206.84
2022-08-01T08:04:36.823Z,100198.25
2022-08-01T08:07:06.214Z,100208.97
2022-08-01T08:09:37.958Z,100211.22
2022-08-01T08:12:09.115Z,100210.75
2022-08-01T08:14:38.656Z,100209.59
2022-08-01T08:17:09.122Z,100206.47
2022-08-01T08:19:39.777Z,100210.84
2022-08-01T08:22:10.374Z,100215.97
2022-08-01T08:24:45.465Z,100208.03
2022-08-01T08:27:16.549Z,100209.66
2022-08-01T08:29:45.342Z,100214.06
2022-08-01T08:32:15.476Z,100213.53
2022-08-01T08:34:44.744Z,100214.19
2022-08-01T08:37:13.904Z,100215.69
2022-08-01T08:39:42.745Z,100224.06
2022-08-01T08:42:13.173Z,100224.03
2022-08-01T08:44:44.669Z,100225.28
2022-08-01T08:47:20.283Z,100221.41
2022-08-01T08:49:51.559Z,100222.59
2022-08-01T08:52:22.817Z,100226.88
2022-08-01T08:54:53.720Z,100233.19
2022-08-01T08:57:23.508Z,100234.81
2022-08-01T08:59:55.170Z,100232.78
2022-08-01T09:02:25.722Z,100238.19
2022-08-01T09:04:54.800Z,100235.56
2022-08-01T09:07:23.948Z,100240.88
2022-08-01T09:09:53.134Z,100236.00
2022-08-01T09:12:22.656Z,100247.28
2022-08-01T09:14:54.517Z,100243.94
2022-08-01T09:17:25.420Z,100244.22
2022-08-01T09:19:57.671Z,100247.66
2022-08-01T09:22:27.332Z,100241.53
2022-08-01T09:25:09.589Z,100249.06
2022-08-01T09:27:44.137Z,100254.16
2022-08-01T16:05:23.587Z,100213.25
2022-08-01T16:07:59.960Z,100214.41
2022-08-01T16:10:30.714Z,100217.91
2022-08-01T16:13:05.898Z,100219.50
2022-08-01T16:15:37.700Z,100225.25
2022-08-01T16:18:08.158Z,100216.81
2022-08-01T16:20:44.356Z,100224.22
2022-08-01T16:23:14.215Z,100236.56
2022-08-01T16:25:43.814Z,100237.75
2022-08-01T16:28:14.090Z,100230.00
2022-08-01T16:30:50.968Z,100226.69
2022-08-01T16:33:46.959Z,100239.88
2022-08-01T16:36:24.846Z,100243.44
2022-08-01T16:38:53.821Z,100237.19
2022-08-01T16:41:22.712Z,100237.00
2022-08-01T16:43:53.447Z,100236.78
2022-08-01T16:46:25.056Z,100230.63
2022-08-01T16:48:55.178Z,100230.91
2022-08-01T16:51:25.331Z,100228.19
2022-08-01T16:53:54.095Z,100230.44
2022-08-01T16:56:22.955Z,100233.34
2022-08-01T16:58:51.559Z,100229.94
2022-08-01T17:02:00.239Z,100228.00
2022-08-01T17:04:09.058Z,100229.16
2022-08-01T17:06:39.054Z,100230.63
2022-08-01T17:09:09.306Z,100233.78
2022-08-01T17:11:38.100Z,100231.03
2022-08-01T17:14:06.844Z,100226.75
2022-08-01T17:16:35.962Z,100238.50
2022-08-01T17:19:05.025Z,100228.22
2022-08-01T17:21:33.669Z,100240.41
2022-08-01T17:24:03.641Z,100230.13
2022-08-01T17:26:32.567Z,100229.84
2022-08-01T17:29:01.086Z,100242.75
2022-08-01T17:31:29.849Z,100232.09
2022-08-01T17:33:59.247Z,100238.00
2022-08-01T17:36:28.269Z,100238.72
2022-08-01T17:38:57.007Z,100240.28
2022-08-01T17:41:27.201Z,100241.44
2022-08-01T17:43:55.849Z,100250.84
2022-08-01T17:46:24.609Z,100243.81
2022-08-01T17:48:53.380Z,100250.91
2022-08-01T17:51:22.924Z,100246.94
2022-08-01T17:53:55.490Z,100251.81
2022-08-01T17:56:28.481Z,100254.00
2022-08-01T17:58:57.965Z,100254.53
2022-08-01T18:01:27.517Z,100239.19
2022-08-01T18:03:58.479Z,100248.22
2022-08-01T18:06:28.451Z,100245.44
2022-08-01T18:08:59.714Z,100251.94
2022-08-01T18:11:37.343Z,100249.44
2022-08-01T18:14:07.151Z,100248.13
2022-08-01T18:16:35.845Z,100246.47
2022-08-01T18:19:06.980Z,100255.34
2022-08-01T18:21:38.662Z,100251.34
2022-08-01T18:24:11.142Z,100253.53
2022-08-01T18:26:41.299Z,100255.84
2022-08-01T18:29:10.377Z,100263.56
2022-08-01T18:31:41.151Z,100265.28
2022-08-01T18:34:09.771Z,100268.28
2022-08-01T18:36:40.391Z,100266.97
2022-08-01T18:39:10.887Z,100268.16
2022-08-01T18:41:41.519Z,100272.00
2022-08-01T18:44:10.106Z,100274.19
2022-08-01T18:46:40.135Z,100284.03
2022-08-01T18:49:12.437Z,100283.72
2022-08-01T18:51:44.783Z,100294.06
2022-08-01T18:54:15.529Z,100287.91
2022-08-01T18:56:46.264Z,100288.25
2022-08-01T18:59:15.258Z,100286.56
2022-08-01T19:01:44.715Z,100294.59
2022-08-01T19:04:13.885Z,100296.09
2022-08-01T19:06:43.345Z,100304.81
2022-08-01T19:09:20.429Z,100299.66
2022-08-01T19:11:51.036Z,100297.13
2022-08-01T19:14:19.797Z,100295.63
2022-08-01T19:16:48.807Z,100299.31
2022-08-01T19:19:24.745Z,100292.78
2022-08-01T19:21:57.052Z,100295.31
2022-08-01T19:24:25.863Z,100302.81
2022-08-01T19:26:58.764Z,100310.00
2022-08-01T19:29:37.956Z,100302.47
2022-08-01T19:32:10.252Z,100304.31
2022-08-01T19:34:49.854Z,100304.31
2022-08-01T19:37:21.080Z,100305.66
2022-08-01T19:39:52.954Z,100314.31
2022-08-01T19:42:25.652Z,100314.31
2022-08-01T19:44:55.692Z,100313.50
2022-08-01T19:47:24.270Z,100309.16
2022-08-01T19:49:52.974Z,100311.00
2022-08-01T19:52:27.879Z,100309.31
2022-08-01T19:54:58.041Z,100308.81
2022-08-01T19:57:28.663Z,100314.97
2022-08-01T20:00:28.103Z,100301.31
2022-08-01T20:03:00.485Z,100303.81
2022-08-01T20:05:29.296Z,100310.31
2022-08-01T20:07:59.770Z,100310.16
2022-08-01T20:10:30.136Z,100312.13
2022-08-01T20:13:01.130Z,100316.00
2022-08-01T20:15:30.576Z,100320.81
2022-08-01T20:17:59.858Z,100322.47
2022-08-01T20:20:29.004Z,100318.16
2022-08-01T20:22:58.972Z,100317.13
2022-08-01T20:25:40.237Z,100311.81
2022-08-01T20:28:13.895Z,100315.50
2022-08-01T20:30:44.231Z,100317.13
2022-08-01T20:33:13.433Z,100318.00
2022-08-01T20:35:51.645Z,100317.13
2022-08-01T20:38:24.747Z,100324.97
2022-08-01T20:40:58.806Z,100322.31
2022-08-01T20:43:29.402Z,100318.97
2022-08-01T20:45:59.212Z,100320.31
2022-08-01T20:48:31.279Z,100323.97
2022-08-01T20:51:17.648Z,100321.31
2022-08-01T20:53:49.220Z,100319.78
2022-08-01T20:56:27.243Z,100321.47
2022-08-01T20:59:10.819Z,100323.66
2022-08-01T21:02:08.810Z,100321.16
2022-08-01T21:04:54.516Z,100324.28
2022-08-01T21:07:29.272Z,100328.63
2022-08-01T21:10:07.006Z,100324.63
2022-08-01T21:12:45.167Z,100332.47
2022-08-01T21:15:28.348Z,100324.63
2022-08-01T21:18:05.541Z,100333.47
2022-08-01T21:20:41.345Z,100328.28
2022-08-01T21:23:28.640Z,100326.78
2022-08-01T21:25:59.959Z,100333.94
2022-08-01T21:28:29.576Z,100326.97
2022-08-01T21:31:00.745Z,100330.28
2022-08-01T21:33:30.402Z,100333.28
2022-08-01T21:36:06.139Z,100336.59
2022-08-01T21:38:40.166Z,100326.09
2022-08-01T21:41:09.749Z,100333.28
2022-08-01T21:43:39.479Z,100336.25
2022-08-01T21:46:11.903Z,100325.75
2022-08-01T21:48:43.110Z,100333.09
2022-08-01T21:51:29.513Z,100334.78
2022-08-01T21:54:11.268Z,100330.41
2022-08-01T21:56:54.209Z,100333.25
2022-08-01T21:59:33.508Z,100336.06
2022-08-01T22:02:12.501Z,100337.09
2022-08-01T22:04:49.363Z,100329.56
2022-08-01T22:07:19.609Z,100332.56
2022-08-01T22:09:51.483Z,100330.91
2022-08-01T22:12:22.063Z,100336.25
2022-08-01T22:14:55.217Z,100349.91
2022-08-01T22:17:25.943Z,100334.06
2022-08-01T22:19:56.300Z,100332.56
2022-08-01T22:22:44.481Z,100346.91
2022-08-01T22:25:17.586Z,100342.72
2022-08-01T22:28:08.536Z,100347.72
2022-08-01T22:30:41.502Z,100352.25
2022-08-01T22:33:16.893Z,100355.41
2022-08-01T22:35:49.880Z,100355.41
2022-08-01T22:38:20.877Z,100345.22
2022-08-01T22:40:54.588Z,100355.06
2022-08-01T22:43:36.366Z,100350.41
2022-08-01T22:46:26.602Z,100357.88
2022-08-01T22:49:08.878Z,100354.25
2022-08-01T22:51:54.799Z,100355.88
2022-08-01T22:54:31.217Z,100356.91
2022-08-01T22:57:07.529Z,100353.38
2022-08-01T22:59:49.506Z,100348.38
2022-08-01T23:02:20.615Z,100355.69
2022-08-01T23:04:58.417Z,100358.38
2022-08-01T23:07:35.478Z,100353.69
2022-08-01T23:10:07.444Z,100353.69
2022-08-01T23:12:37.660Z,100361.03
2022-08-01T23:15:08.842Z,100359.03
2022-08-01T23:17:39.159Z,100355.06
2022-08-01T23:20:10.860Z,100359.56
2022-08-01T23:22:42.415Z,100361.03
2022-08-01T23:25:15.309Z,100357.97
2022-08-01T23:27:55.738Z,100363.47
2022-08-01T23:30:36.867Z,100366.63
2022-08-01T23:33:06.020Z,100359.78
2022-08-01T23:35:38.926Z,100351.94
2022-08-01T23:38:10.185Z,100360.94
2022-08-01T23:40:40.034Z,100366.44
2022-08-01T23:43:16.063Z,100357.59
2022-08-01T23:46:03.918Z,100362.09
2022-08-01T23:48:35.138Z,100368.13
2022-08-01T23:51:05.908Z,100356.66
2022-08-01T23:53:37.640Z,100362.91
2022-08-01T23:56:07.595Z,100365.75
2022-08-01T23:58:36.465Z,100363.56
